This is the latest recevied weather packets stored in our database for station/object DL4PY-13. If no packets are shown the sender has not sent any weather packets the latest 10 day(s).
| Time | Temp. | Humidity | Pressure | Rain* | Wind** | Luminosity | Snow |
|---|---|---|---|---|---|---|---|
| 1777636956 | 19.44° C | 29% | 1026.5 hPa | 0 mm | - | - | - |
| 1777636347 | 18.89° C | 28% | 1026.7 hPa | 0 mm | - | - | - |
| 1777635448 | 18.89° C | 28% | 1026.7 hPa | 0 mm | - | - | - |
| 1777635156 | 18.33° C | 28% | 1026.8 hPa | 0 mm | - | - | - |
| 1777634856 | 18.89° C | 29% | 1026.8 hPa | 0 mm | - | - | - |
| 1777634548 | 18.89° C | 28% | 1026.8 hPa | 0 mm | - | - | - |
| 1777634256 | 18.89° C | 28% | 1026.9 hPa | 0 mm | - | - | - |
| 1777633954 | 18.33° C | 28% | 1027 hPa | 0 mm | - | - | - |
| 1777633649 | 18.89° C | 28% | 1026.9 hPa | 0 mm | - | - | - |
| 1777632747 | 18.89° C | 27% | 1026.9 hPa | 0 mm | - | - | - |
| 1777632154 | 18.33° C | 26% | 1027.1 hPa | 0 mm | - | - | - |
| 1777631853 | 18.89° C | 27% | 1027.1 hPa | 0 mm | - | - | - |
| 1777631557 | 17.78° C | 27% | 1027.2 hPa | 0 mm | - | - | - |
| 1777630659 | 17.22° C | 25% | 1027.3 hPa | 0 mm | - | - | - |
| 1777630356 | 17.22° C | 26% | 1027.4 hPa | 0 mm | - | - | - |
| 1777630047 | 17.22° C | 26% | 1027.6 hPa | 0 mm | - | - | - |
| 1777629757 | 17.22° C | 26% | 1027.5 hPa | 0 mm | - | - | - |
| 1777629456 | 17.22° C | 26% | 1027.4 hPa | 0 mm | - | - | - |
| 1777629148 | 17.22° C | 26% | 1027.4 hPa | 0 mm | - | - | - |
| 1777628854 | 17.22° C | 26% | 1027.4 hPa | 0 mm | - | - | - |
| 1777628248 | 16.67° C | 26% | 1027.6 hPa | 0 mm | - | - | - |
| 1777627655 | 17.22° C | 29% | 1027.5 hPa | 0 mm | - | - | - |
| 1777627348 | 16.67° C | 29% | 1027.7 hPa | 0 mm | - | - | - |
| 1777626755 | 16.67° C | 28% | 1027.7 hPa | 0 mm | - | - | - |
| 1777626448 | 16.11° C | 29% | 1027.6 hPa | 0 mm | - | - | - |
* Rain latest hour (hover to see other rain measurements)
** Current wind speed in m/s (hover to see current wind gust speed)